CheckWX is a tool to help pilots better visualize weather data.  It is not intended as a substitute for an official pre-flight weather briefing.

04:01:07 UTC

KGRI METAR
Central Nebraska Regional Airport
Grand Island, Nebraska, USA
Current

8 mins ago

KGRI 250353Z AUTO 18008KT 10SM CLR 16/04 A2978 RMK AO2 SLP080 T01610039
Observed
Apr-25 @ 03:53 UTC
Wind
  • 180° at 8 KTS
Visibility
10 SM
Flight Rules
VFR
Cloud Levels
  • Clear skies
Temperature
16°C / 61°F
Dewpoint
C / 39°F
Humidity
45%
Altimeter
29.78" Hg
Pressure
1008.42 hPa
Previous

1 hour ago

KGRI 250253Z AUTO 18007KT 10SM CLR 17/04 A2977 RMK AO2 SLP079 T01720044 53003
Observed
Apr-25 @ 02:53 UTC
Wind
  • 180° at 7 KTS
Visibility
10 SM
Flight Rules
VFR
Cloud Levels
  • Clear skies
Temperature
17°C / 63°F
Dewpoint
C / 39°F
Humidity
42%
Altimeter
29.77" Hg
Pressure
1008.12 hPa
Previous

2 hours ago

KGRI 250153Z AUTO 12004KT 10SM CLR 18/06 A2976 RMK AO2 SLP077 T01830061
Observed
Apr-25 @ 01:53 UTC
Wind
  • 120° at 4 KTS
Visibility
10 SM
Flight Rules
VFR
Cloud Levels
  • Clear skies
Temperature
18°C / 64°F
Dewpoint
C / 43°F
Humidity
46%
Altimeter
29.76" Hg
Pressure
1007.82 hPa